createdAt,value
2019-03-04T00:02:11.390Z,74.00
2019-03-04T00:04:39.826Z,74.30
2019-03-04T00:07:08.273Z,74.50
2019-03-04T00:09:36.707Z,74.80
2019-03-04T00:12:05.213Z,74.00
2019-03-04T00:14:33.707Z,74.00
2019-03-04T00:17:02.143Z,73.40
2019-03-04T00:19:30.651Z,73.10
2019-03-04T00:21:59.122Z,72.90
2019-03-04T00:24:27.570Z,72.40
2019-03-04T00:26:55.987Z,71.90
2019-03-04T00:29:24.414Z,71.40
2019-03-04T00:31:52.864Z,71.40
2019-03-04T00:34:21.296Z,70.30
2019-03-04T00:36:51.385Z,70.20
2019-03-04T00:39:19.818Z,69.50
2019-03-04T00:41:48.255Z,68.70
2019-03-04T00:44:16.706Z,68.90
2019-03-04T00:46:45.144Z,67.50
2019-03-04T00:49:13.588Z,67.10
2019-03-04T00:51:42.017Z,66.90
2019-03-04T00:54:10.462Z,66.20
2019-03-04T00:56:38.880Z,65.60
2019-03-04T00:59:07.306Z,65.60
2019-03-04T01:01:35.731Z,65.40
2019-03-04T01:04:04.247Z,64.90
2019-03-04T01:06:32.708Z,64.20
2019-03-04T01:09:01.105Z,64.40
2019-03-04T01:11:29.533Z,64.50
2019-03-04T01:13:58.122Z,64.40
2019-03-04T01:16:26.671Z,64.40
2019-03-04T01:18:55.149Z,63.90
2019-03-04T01:21:23.600Z,63.70
2019-03-04T01:23:51.992Z,63.30
2019-03-04T01:26:20.463Z,62.90
2019-03-04T01:28:48.938Z,63.70
2019-03-04T01:31:17.349Z,63.00
2019-03-04T01:33:45.809Z,63.40
2019-03-04T01:36:14.266Z,63.00
2019-03-04T01:38:42.705Z,63.10
2019-03-04T01:41:11.168Z,63.20
2019-03-04T01:43:39.670Z,63.70
2019-03-04T01:46:08.105Z,64.30
2019-03-04T01:48:36.571Z,64.20
2019-03-04T01:51:05.062Z,64.00
2019-03-04T01:53:33.643Z,64.20
2019-03-04T01:56:02.077Z,63.90
2019-03-04T01:58:30.584Z,63.70
2019-03-04T02:00:59.022Z,63.20
2019-03-04T02:03:27.455Z,63.30
2019-03-04T02:05:55.897Z,62.40
2019-03-04T02:08:24.326Z,61.90
2019-03-04T02:10:52.761Z,62.10
2019-03-04T02:13:21.201Z,62.10
2019-03-04T02:15:49.631Z,62.60
2019-03-04T02:18:18.095Z,63.30
2019-03-04T02:20:46.509Z,64.30
2019-03-04T02:23:14.953Z,64.30
2019-03-04T02:25:49.351Z,63.90
2019-03-04T02:28:17.792Z,62.90
2019-03-04T02:30:46.204Z,62.20
2019-03-04T02:33:14.844Z,62.70
2019-03-04T02:35:43.268Z,64.00
2019-03-04T02:38:11.763Z,64.10
2019-03-04T02:40:40.181Z,63.60
2019-03-04T02:43:08.604Z,63.50
2019-03-04T02:45:37.033Z,64.00
2019-03-04T02:48:05.515Z,63.00
2019-03-04T02:50:33.987Z,62.60
2019-03-04T02:53:02.418Z,62.60
2019-03-04T02:55:30.838Z,62.30
2019-03-04T02:57:59.246Z,62.30
2019-03-04T03:00:27.769Z,63.20
2019-03-04T03:02:56.187Z,61.70
2019-03-04T03:05:24.676Z,61.10
2019-03-04T03:07:53.090Z,60.80
2019-03-04T03:10:21.578Z,60.50
2019-03-04T03:12:50.006Z,60.10
2019-03-04T03:15:20.147Z,59.70
2019-03-04T03:17:48.558Z,59.70
2019-03-04T03:20:17.257Z,58.30
2019-03-04T03:22:45.756Z,58.00
2019-03-04T03:25:15.318Z,58.10
2019-03-04T03:27:43.827Z,58.20
2019-03-04T03:30:17.285Z,57.80
2019-03-04T03:32:45.925Z,58.10
2019-03-04T03:35:14.456Z,58.20
2019-03-04T03:37:43.047Z,58.40
2019-03-04T03:40:16.756Z,58.40
2019-03-04T03:42:45.190Z,58.90
2019-03-04T03:45:13.944Z,59.20
2019-03-04T03:47:42.360Z,59.30
2019-03-04T03:50:12.872Z,59.40
2019-03-04T03:52:41.372Z,59.60
2019-03-04T03:55:14.056Z,59.80
2019-03-04T03:57:42.519Z,59.90
2019-03-04T04:00:17.006Z,59.60
2019-03-04T04:02:45.445Z,59.20
2019-03-04T04:05:13.938Z,58.90
2019-03-04T04:07:42.368Z,58.30
2019-03-04T04:10:18.710Z,58.10
2019-03-04T04:12:47.355Z,58.00
2019-03-04T04:15:17.375Z,57.80
2019-03-04T04:17:45.811Z,57.80
2019-03-04T04:20:14.574Z,57.70
2019-03-04T04:22:43.100Z,57.90
2019-03-04T04:25:12.262Z,58.30
2019-03-04T04:27:40.768Z,58.60
2019-03-04T04:30:18.784Z,59.30
2019-03-04T04:32:47.202Z,59.80
2019-03-04T04:35:15.617Z,60.60
2019-03-04T04:37:44.093Z,60.60
2019-03-04T04:40:13.679Z,61.10
2019-03-04T04:42:42.181Z,61.30
2019-03-04T04:45:10.952Z,61.50
2019-03-04T04:47:41.078Z,61.70
2019-03-04T04:50:12.740Z,61.60
2019-03-04T04:52:41.178Z,61.20
2019-03-04T04:55:09.776Z,60.70
2019-03-04T04:57:38.217Z,60.10
2019-03-04T05:00:14.596Z,60.10
2019-03-04T05:02:43.082Z,59.90
2019-03-04T05:05:11.593Z,59.70
2019-03-04T05:07:40.010Z,59.40
2019-03-04T05:10:19.245Z,59.30
2019-03-04T05:12:47.657Z,59.20
2019-03-04T05:15:16.734Z,59.30
2019-03-04T05:17:45.214Z,59.40
2019-03-04T05:20:24.978Z,59.70
2019-03-04T05:22:53.504Z,59.90
2019-03-04T05:25:21.937Z,60.00
2019-03-04T05:27:50.426Z,59.80
2019-03-04T05:30:21.960Z,59.70
2019-03-04T05:32:50.362Z,59.70
2019-03-04T05:35:18.858Z,59.80
2019-03-04T05:37:47.283Z,59.60
2019-03-04T05:40:19.612Z,59.50
2019-03-04T05:42:48.093Z,59.30
2019-03-04T05:45:17.678Z,59.10
2019-03-04T05:47:46.088Z,59.20
2019-03-04T05:50:24.901Z,59.30
2019-03-04T05:52:53.327Z,59.30
2019-03-04T05:55:21.839Z,59.40
2019-03-04T05:57:50.257Z,59.90
2019-03-04T06:00:24.906Z,59.90
2019-03-04T06:02:56.651Z,60.00
2019-03-04T06:05:25.089Z,60.00
2019-03-04T06:07:58.108Z,59.90
2019-03-04T06:10:26.560Z,59.80
2019-03-04T06:12:54.991Z,59.90
2019-03-04T06:15:23.488Z,60.00
2019-03-04T06:17:51.996Z,59.90
2019-03-04T06:20:20.873Z,59.40
2019-03-04T06:22:49.363Z,59.00
2019-03-04T06:25:28.577Z,58.70
2019-03-04T06:27:57.245Z,58.60
2019-03-04T06:30:30.020Z,58.10
2019-03-04T06:32:58.537Z,57.90
2019-03-04T06:35:26.949Z,58.00
2019-03-04T06:37:55.412Z,57.90
2019-03-04T06:40:23.820Z,57.90
2019-03-04T06:42:52.249Z,57.90
2019-03-04T06:45:21.044Z,58.00
2019-03-04T06:47:49.536Z,58.10
2019-03-04T06:50:46.290Z,58.50
2019-03-04T06:53:34.159Z,58.70
2019-03-04T06:56:06.022Z,58.70
2019-03-04T06:59:04.194Z,59.10
2019-03-04T07:01:38.186Z,58.90
2019-03-04T07:04:12.520Z,58.90
2019-03-04T07:06:40.925Z,58.80
2019-03-04T07:09:09.360Z,58.60
2019-03-04T07:11:37.916Z,59.00
2019-03-04T07:14:06.489Z,59.60
2019-03-04T07:16:34.958Z,59.80
2019-03-04T07:19:04.242Z,59.50
2019-03-04T07:21:32.884Z,59.80
2019-03-04T07:24:01.326Z,60.10
2019-03-04T07:26:29.772Z,59.50
2019-03-04T07:28:58.286Z,59.80
2019-03-04T07:31:26.785Z,59.00
2019-03-04T07:33:55.333Z,58.80
2019-03-04T07:36:23.808Z,58.90
2019-03-04T07:38:53.973Z,58.90
2019-03-04T07:41:22.493Z,57.00
2019-03-04T07:43:50.929Z,56.30
2019-03-04T07:46:19.405Z,56.20
2019-03-04T07:48:47.892Z,55.80
2019-03-04T07:51:17.669Z,55.80
2019-03-04T07:53:46.894Z,55.60
2019-03-04T07:56:17.098Z,55.50
2019-03-04T07:58:45.536Z,55.50
2019-03-04T08:01:14.121Z,55.10
2019-03-04T08:03:42.549Z,55.10
2019-03-04T08:06:11.046Z,55.10
2019-03-04T08:08:41.831Z,55.30
2019-03-04T08:11:34.290Z,55.20
2019-03-04T08:14:13.629Z,55.00
2019-03-04T08:16:42.161Z,55.20
2019-03-04T08:19:10.590Z,55.40
2019-03-04T08:21:39.145Z,56.00
2019-03-04T08:24:07.665Z,57.20
2019-03-04T08:26:36.342Z,60.60
2019-03-04T08:29:05.690Z,63.20
2019-03-04T08:31:35.201Z,64.60
2019-03-04T08:34:03.617Z,66.50
2019-03-04T08:36:32.137Z,67.70
2019-03-04T08:39:00.554Z,68.60
2019-03-04T08:41:28.977Z,70.10
2019-03-04T08:43:57.516Z,71.70
2019-03-04T08:46:25.999Z,73.60
2019-03-04T08:48:54.497Z,75.60
2019-03-04T08:51:22.903Z,76.50
2019-03-04T08:53:51.371Z,77.50
2019-03-04T08:56:20.038Z,76.70
2019-03-04T08:58:48.496Z,76.50
2019-03-04T09:01:16.969Z,76.90
2019-03-04T09:03:45.415Z,75.70
2019-03-04T09:06:13.921Z,74.60
2019-03-04T09:08:42.539Z,74.90
2019-03-04T09:11:10.974Z,74.20
2019-03-04T09:13:39.408Z,73.70
2019-03-04T09:16:07.905Z,73.20
2019-03-04T09:18:36.353Z,71.70
2019-03-04T09:21:04.765Z,70.60
2019-03-04T09:23:33.274Z,69.60
2019-03-04T09:26:05.137Z,69.40
2019-03-04T09:28:33.651Z,69.00
2019-03-04T09:31:02.084Z,69.50
2019-03-04T09:33:30.585Z,68.10
2019-03-04T09:35:59.013Z,66.90
2019-03-04T09:38:27.576Z,67.20
2019-03-04T09:40:55.992Z,66.00
2019-03-04T09:43:25.005Z,65.90
2019-03-04T09:45:53.425Z,66.30
2019-03-04T09:48:21.874Z,66.30
2019-03-04T09:50:50.404Z,66.80
2019-03-04T09:53:18.825Z,66.30
2019-03-04T09:55:47.275Z,66.20
2019-03-04T09:58:15.784Z,66.20
2019-03-04T10:01:08.270Z,66.10
2019-03-04T10:03:42.653Z,65.60
2019-03-04T10:06:16.862Z,65.10
2019-03-04T10:08:51.342Z,65.10
2019-03-04T10:11:43.745Z,65.20
2019-03-04T10:14:21.173Z,64.20
2019-03-04T10:16:52.946Z,64.60
2019-03-04T10:19:36.325Z,64.60
2019-03-04T10:22:22.609Z,65.30
2019-03-04T10:25:02.956Z,65.90
2019-03-04T10:27:43.256Z,67.20
2019-03-04T10:30:26.374Z,66.70
2019-03-04T10:33:09.557Z,66.50
2019-03-04T10:35:43.625Z,66.70
2019-03-04T10:38:23.834Z,66.50
2019-03-04T10:40:57.984Z,66.60
2019-03-04T10:43:44.743Z,66.30
2019-03-04T10:46:19.182Z,66.40
2019-03-04T10:48:47.595Z,66.10
2019-03-04T10:51:16.226Z,66.20
2019-03-04T10:53:44.673Z,66.50
2019-03-04T10:56:13.090Z,66.90
2019-03-04T10:58:41.578Z,66.80
2019-03-04T11:01:10.124Z,66.50
2019-03-04T11:03:38.584Z,66.30
2019-03-04T11:06:07.066Z,66.30
2019-03-04T11:08:35.510Z,65.80
2019-03-04T11:11:04.014Z,66.00
2019-03-04T11:13:32.446Z,65.70
2019-03-04T11:16:00.863Z,65.80
2019-03-04T11:18:29.313Z,65.70
2019-03-04T11:20:57.749Z,66.00
2019-03-04T11:23:27.423Z,65.80
2019-03-04T11:25:55.840Z,65.70
2019-03-04T11:28:24.689Z,65.40
2019-03-04T11:30:53.186Z,65.70
2019-03-04T11:33:21.634Z,65.80
2019-03-04T11:35:50.083Z,65.70
2019-03-04T11:38:38.933Z,65.00
2019-03-04T11:41:09.189Z,65.10
2019-03-04T11:43:37.708Z,65.00
2019-03-04T11:46:06.265Z,64.40
2019-03-04T11:48:34.796Z,64.40
2019-03-04T11:51:03.314Z,63.60
2019-03-04T11:53:31.798Z,63.30
2019-03-04T11:56:00.312Z,63.00
2019-03-04T11:58:28.865Z,61.80
2019-03-04T12:01:10.847Z,61.80
2019-03-04T12:03:39.337Z,61.40
2019-03-04T12:06:07.930Z,61.20
2019-03-04T12:08:37.908Z,61.40
2019-03-04T12:11:06.436Z,61.30
2019-03-04T12:13:34.867Z,60.00
2019-03-04T12:16:03.406Z,60.10
2019-03-04T12:18:31.878Z,60.70
2019-03-04T12:21:00.394Z,60.90
2019-03-04T12:23:28.801Z,61.30
2019-03-04T12:25:57.270Z,61.60
2019-03-04T12:28:25.740Z,61.70
2019-03-04T12:30:54.201Z,62.00
2019-03-04T12:33:22.698Z,62.00
2019-03-04T12:35:51.211Z,61.60
2019-03-04T12:38:19.726Z,62.00
2019-03-04T12:40:48.193Z,61.70
2019-03-04T12:43:16.630Z,62.30
2019-03-04T12:45:45.081Z,61.70
2019-03-04T12:48:13.628Z,61.30
2019-03-04T12:50:42.123Z,61.10
2019-03-04T12:53:10.624Z,61.20
2019-03-04T12:55:39.049Z,60.20
2019-03-04T12:58:10.705Z,59.40
2019-03-04T13:00:39.397Z,59.10
2019-03-04T13:03:09.357Z,59.40
2019-03-04T13:05:37.764Z,59.20
2019-03-04T13:08:06.220Z,58.60
2019-03-04T13:10:34.621Z,57.90
2019-03-04T13:13:03.132Z,57.60
2019-03-04T13:15:33.500Z,56.00
2019-03-04T13:18:02.019Z,55.70
2019-03-04T13:20:31.263Z,54.70
2019-03-04T13:22:59.740Z,54.00
2019-03-04T13:25:28.201Z,54.20
2019-03-04T13:27:56.674Z,53.30
2019-03-04T13:30:28.188Z,52.60
2019-03-04T13:32:56.681Z,51.70
2019-03-04T13:35:27.451Z,51.90
2019-03-04T13:37:55.976Z,52.00
2019-03-04T13:40:24.560Z,51.30
2019-03-04T13:42:53.069Z,50.90
2019-03-04T13:45:21.657Z,50.90
2019-03-04T13:47:50.189Z,50.10
2019-03-04T13:50:26.389Z,50.20
2019-03-04T13:52:55.868Z,49.20
2019-03-04T13:55:24.445Z,49.00
2019-03-04T13:57:53.125Z,49.40
2019-03-04T14:00:25.520Z,48.10
2019-03-04T14:02:54.028Z,47.60
2019-03-04T14:05:23.512Z,47.30
2019-03-04T14:07:52.033Z,46.90
2019-03-04T14:10:22.848Z,46.90
2019-03-04T14:12:51.277Z,46.50
2019-03-04T14:15:28.711Z,46.00
2019-03-04T14:17:57.202Z,46.20
2019-03-04T14:20:25.671Z,46.10
2019-03-04T14:22:57.560Z,45.80
2019-03-04T14:25:24.300Z,45.60
2019-03-04T14:27:52.732Z,43.90
2019-03-04T14:30:22.060Z,43.40
2019-03-04T14:32:50.484Z,43.60
2019-03-04T14:35:18.939Z,43.50
2019-03-04T14:37:47.523Z,44.10
2019-03-04T14:40:18.085Z,44.80
2019-03-04T14:42:46.636Z,44.70
2019-03-04T14:45:20.254Z,44.00
2019-03-04T14:47:48.728Z,43.40
2019-03-04T14:50:19.327Z,43.60
2019-03-04T14:52:47.797Z,43.30
2019-03-04T14:55:21.963Z,43.00
2019-03-04T14:57:50.440Z,43.60
2019-03-04T15:00:30.709Z,43.60
2019-03-04T15:02:59.193Z,44.10
2019-03-04T15:05:27.620Z,45.00
2019-03-04T15:07:56.102Z,45.90
2019-03-04T15:10:24.659Z,46.30
2019-03-04T15:12:54.113Z,46.20
2019-03-04T15:15:25.053Z,46.80
2019-03-04T15:17:53.497Z,47.30
2019-03-04T15:20:27.017Z,47.30
2019-03-04T15:22:55.596Z,47.40
2019-03-04T15:25:31.754Z,47.90
2019-03-04T15:28:17.357Z,48.00
2019-03-04T15:30:51.161Z,48.10
2019-03-04T15:33:19.700Z,48.30
2019-03-04T15:35:48.293Z,48.70
2019-03-04T15:38:16.748Z,49.10
2019-03-04T15:40:45.596Z,49.50
2019-03-04T15:43:14.056Z,50.10
2019-03-04T15:45:44.196Z,53.60
2019-03-04T15:48:13.060Z,58.30
2019-03-04T15:50:41.557Z,62.90
2019-03-04T15:53:10.061Z,65.00
2019-03-04T15:55:38.559Z,70.10
2019-03-04T15:58:07.290Z,72.80
2019-03-04T16:00:35.866Z,74.10
2019-03-04T16:03:05.032Z,76.50
2019-03-04T16:05:33.571Z,77.60
2019-03-04T16:08:07.516Z,79.40
2019-03-04T16:10:36.813Z,79.70
2019-03-04T16:13:06.617Z,79.20
2019-03-04T16:15:37.075Z,78.80
2019-03-04T16:18:05.658Z,78.70
2019-03-04T16:20:34.154Z,80.30
2019-03-04T16:23:02.725Z,80.00
2019-03-04T16:25:31.222Z,80.60
2019-03-04T16:28:02.966Z,81.20
2019-03-04T16:30:31.511Z,81.40
2019-03-04T16:33:00.050Z,80.80
2019-03-04T16:35:28.497Z,80.70
2019-03-04T16:37:56.993Z,81.40
2019-03-04T16:40:26.070Z,80.80
2019-03-04T16:42:54.511Z,79.20
2019-03-04T16:45:23.532Z,80.70
2019-03-04T16:47:52.388Z,80.00
2019-03-04T16:50:32.885Z,79.10
2019-03-04T16:53:10.453Z,79.90
2019-03-04T16:55:38.948Z,79.70
2019-03-04T16:58:07.404Z,79.20
2019-03-04T17:00:35.917Z,80.20
2019-03-04T17:03:04.492Z,79.00
2019-03-04T17:05:33.026Z,79.70
2019-03-04T17:08:02.510Z,79.00
2019-03-04T17:10:31.111Z,79.60
2019-03-04T17:12:59.675Z,79.90
2019-03-04T17:15:28.319Z,80.30
2019-03-04T17:17:56.781Z,81.40
2019-03-04T17:20:25.266Z,82.60
2019-03-04T17:22:53.766Z,84.80
2019-03-04T17:25:23.317Z,85.00
2019-03-04T17:27:51.740Z,85.30
2019-03-04T17:30:23.254Z,85.40
2019-03-04T17:32:51.756Z,86.10
2019-03-04T17:35:21.362Z,86.50
2019-03-04T17:37:50.217Z,86.40
2019-03-04T17:40:23.061Z,86.10
2019-03-04T17:42:51.596Z,85.60
2019-03-04T17:45:24.469Z,85.80
2019-03-04T17:47:53.213Z,85.70
2019-03-04T17:50:35.890Z,85.10
2019-03-04T17:53:12.210Z,85.10
2019-03-04T17:55:40.834Z,84.90
2019-03-04T17:58:09.272Z,84.70
2019-03-04T18:00:39.515Z,83.80
2019-03-04T18:03:08.091Z,84.10
2019-03-04T18:05:36.666Z,83.60
2019-03-04T18:08:05.411Z,83.90
2019-03-04T18:10:33.946Z,84.20
2019-03-04T18:13:05.351Z,83.40
2019-03-04T18:15:38.646Z,84.60
2019-03-04T18:18:07.095Z,84.60
2019-03-04T18:20:35.647Z,84.10
2019-03-04T18:23:04.300Z,83.50
2019-03-04T18:25:48.404Z,83.60
2019-03-04T18:28:34.822Z,83.50
2019-03-04T18:31:26.907Z,82.80
2019-03-04T18:34:04.396Z,81.60
2019-03-04T18:36:56.790Z,80.90
2019-03-04T18:39:50.562Z,79.90
2019-03-04T18:42:36.555Z,80.00
2019-03-04T18:45:10.798Z,79.40
2019-03-04T18:47:57.330Z,78.60
2019-03-04T18:50:25.902Z,79.00
2019-03-04T18:52:54.431Z,78.60
2019-03-04T18:55:22.953Z,78.80
2019-03-04T18:57:51.394Z,78.50
2019-03-04T19:00:23.072Z,78.20
2019-03-04T19:02:51.531Z,77.60
2019-03-04T19:05:19.989Z,77.20
2019-03-04T19:07:48.498Z,76.80
2019-03-04T19:10:17.110Z,76.40
2019-03-04T19:12:45.675Z,76.30
2019-03-04T19:15:14.705Z,76.60
2019-03-04T19:17:43.111Z,76.80
2019-03-04T19:20:16.526Z,77.00
2019-03-04T19:22:45.023Z,77.20
2019-03-04T19:25:14.450Z,77.10
2019-03-04T19:27:43.037Z,77.30
2019-03-04T19:30:17.358Z,77.10
2019-03-04T19:32:45.906Z,77.10
2019-03-04T19:35:16.033Z,78.00
2019-03-04T19:37:44.606Z,78.50
2019-03-04T19:40:17.131Z,77.80
2019-03-04T19:42:45.670Z,78.00
2019-03-04T19:45:16.757Z,77.50
2019-03-04T19:47:45.409Z,77.70
2019-03-04T19:50:15.126Z,78.20
2019-03-04T19:52:43.687Z,78.80
2019-03-04T19:55:16.990Z,78.80
2019-03-04T19:57:46.112Z,79.70
2019-03-04T20:00:18.124Z,80.00
2019-03-04T20:02:46.731Z,80.40
2019-03-04T20:05:16.445Z,81.30
2019-03-04T20:07:45.140Z,81.80
2019-03-04T20:10:15.123Z,82.70
2019-03-04T20:12:43.711Z,82.20
2019-03-04T20:15:20.529Z,82.80
2019-03-04T20:17:49.157Z,83.60
2019-03-04T20:20:17.797Z,84.50
2019-03-04T20:22:46.728Z,84.30
2019-03-04T20:25:16.666Z,84.10
2019-03-04T20:27:45.260Z,84.40
2019-03-04T20:30:16.627Z,84.60
2019-03-04T20:32:45.465Z,84.80
2019-03-04T20:35:15.231Z,83.90
2019-03-04T20:37:50.077Z,84.60
2019-03-04T20:40:18.816Z,85.00
2019-03-04T20:42:47.349Z,85.20
2019-03-04T20:45:17.478Z,85.30
2019-03-04T20:47:46.045Z,84.70
2019-03-04T20:50:22.339Z,84.40
2019-03-04T20:52:50.943Z,83.80
2019-03-04T20:55:19.615Z,84.10
2019-03-04T20:57:48.231Z,83.80
2019-03-04T21:00:25.961Z,83.90
2019-03-04T21:02:54.631Z,83.80
2019-03-04T21:05:24.056Z,84.30
2019-03-04T21:07:53.291Z,84.60
2019-03-04T21:10:21.775Z,84.20
2019-03-04T21:12:51.712Z,84.70
2019-03-04T21:15:20.631Z,85.00
2019-03-04T21:17:49.208Z,85.70
2019-03-04T21:20:18.633Z,85.60
2019-03-04T21:22:47.812Z,86.20
2019-03-04T21:25:35.281Z,87.10
2019-03-04T21:28:30.515Z,86.80
2019-03-04T21:31:17.089Z,87.10
2019-03-04T21:34:06.270Z,87.10
2019-03-04T21:36:46.600Z,86.90
2019-03-04T21:39:18.687Z,86.50
2019-03-04T21:41:55.904Z,86.60
2019-03-04T21:44:50.028Z,87.00
2019-03-04T21:47:21.590Z,87.00
2019-03-04T21:49:51.407Z,86.70
2019-03-04T21:52:25.897Z,87.60
2019-03-04T21:54:54.426Z,87.70
2019-03-04T21:57:31.841Z,87.70
2019-03-04T22:00:00.478Z,87.70
2019-03-04T22:02:37.413Z,86.90
2019-03-04T22:05:13.584Z,87.00
2019-03-04T22:07:42.346Z,87.40
2019-03-04T22:10:12.891Z,87.10
2019-03-04T22:12:41.410Z,87.70
2019-03-04T22:15:10.727Z,87.40
2019-03-04T22:17:39.287Z,87.90
2019-03-04T22:20:12.219Z,87.80
2019-03-04T22:22:40.798Z,87.60
2019-03-04T22:25:13.608Z,87.80
2019-03-04T22:27:42.130Z,87.40
2019-03-04T22:30:13.822Z,87.70
2019-03-04T22:32:42.475Z,87.50
2019-03-04T22:35:17.205Z,86.90
2019-03-04T22:37:45.693Z,86.90
2019-03-04T22:40:22.511Z,87.40
2019-03-04T22:42:50.967Z,87.60
2019-03-04T22:45:20.738Z,87.50
2019-03-04T22:47:50.621Z,87.20
2019-03-04T22:50:21.150Z,87.30
2019-03-04T22:52:50.305Z,87.00
2019-03-04T22:55:22.137Z,87.20
2019-03-04T22:57:53.767Z,86.90
2019-03-04T23:00:53.805Z,86.00
2019-03-04T23:03:27.506Z,85.70
2019-03-04T23:06:04.805Z,85.30
2019-03-04T23:08:33.290Z,84.90
2019-03-04T23:11:01.898Z,85.00
2019-03-04T23:13:33.413Z,84.80
2019-03-04T23:16:02.480Z,84.30
2019-03-04T23:18:31.026Z,84.40
2019-03-04T23:20:59.426Z,84.80
2019-03-04T23:23:27.934Z,84.50
2019-03-04T23:25:56.553Z,84.40
2019-03-04T23:28:25.080Z,84.70
2019-03-04T23:30:53.590Z,84.60
2019-03-04T23:33:22.068Z,84.40
2019-03-04T23:35:50.571Z,83.70
2019-03-04T23:38:19.077Z,83.60
2019-03-04T23:40:47.510Z,83.90
2019-03-04T23:43:15.934Z,82.40
2019-03-04T23:45:44.375Z,82.80
2019-03-04T23:48:12.806Z,82.80
2019-03-04T23:50:41.319Z,82.70
2019-03-04T23:53:09.812Z,82.60
2019-03-04T23:55:38.242Z,82.80
2019-03-04T23:58:06.751Z,82.60
